Time,TemperatureF,DewpointF,PressureIn,WindDirection,WindDirectionDegrees,WindSpeedMPH,WindSpeedGustMPH,Humidity,HourlyPrecipIn,Conditions,Clouds,dailyrainin,SoftwareType,DateUTC
2013-01-25 00:01:00,64.8,63.6,30.03,SSE,158,1.6,1.6,96,0.00,RA,,0.00,WeatherDisplay:10.37,2013-01-25 10:01:00,
2013-01-25 00:32:00,64.8,63.6,30.04,SSE,158,0.0,0.0,96,0.00,CLR,,0.00,WeatherDisplay:10.37,2013-01-25 10:32:00,
2013-01-25 00:37:00,64.8,63.6,30.04,SSE,158,0.0,0.0,96,0.00,CLR,,0.00,WeatherDisplay:10.37,2013-01-25 10:37:00,
2013-01-25 00:42:00,65.1,63.9,30.04,SSE,158,1.8,2.3,96,0.00,CLR,,0.00,WeatherDisplay:10.37,2013-01-25 10:42:00,
2013-01-25 00:47:00,64.9,63.7,30.04,SSE,158,0.0,0.0,96,0.00,CLR,,0.00,WeatherDisplay:10.37,2013-01-25 10:47:00,
2013-01-25 00:52:00,64.8,63.6,30.04,SSE,158,0.0,0.0,96,0.00,CLR,,0.00,WeatherDisplay:10.37,2013-01-25 10:52:00,
2013-01-25 00:57:00,64.8,63.6,30.04,SSE,158,1.6,1.6,96,0.00,CLR,,0.00,WeatherDisplay:10.37,2013-01-25 10:57:00,
2013-01-25 01:02:00,64.4,63.2,30.03,SSE,158,0.0,0.0,96,0.00,CLR,,0.00,WeatherDisplay:10.37,2013-01-25 11:02:00,
2013-01-25 01:07:00,64.2,63.0,30.03,SSE,158,2.2,2.3,96,0.00,CLR,,0.00,WeatherDisplay:10.37,2013-01-25 11:07:00,
2013-01-25 01:12:00,64.2,63.0,30.03,SSE,158,1.5,1.7,96,0.00,CLR,,0.00,WeatherDisplay:10.37,2013-01-25 11:12:00,
2013-01-25 01:17:00,64.2,63.0,30.03,SSE,158,0.0,0.0,96,0.00,CLR,,0.00,WeatherDisplay:10.37,2013-01-25 11:17:00,
2013-01-25 01:22:00,64.0,63.1,30.03,SSE,158,0.0,0.0,97,0.00,CLR,,0.00,WeatherDisplay:10.37,2013-01-25 11:22:00,
2013-01-25 01:28:00,64.0,63.1,30.03,SSE,158,0.0,0.0,97,0.00,CLR,,0.00,WeatherDisplay:10.37,2013-01-25 11:28:00,
2013-01-25 01:33:00,64.0,63.1,30.03,SSE,158,1.5,1.7,97,0.00,CLR,,0.00,WeatherDisplay:10.37,2013-01-25 11:33:00,
2013-01-25 01:38:00,63.9,63.0,30.03,SSE,158,0.9,1.7,97,0.00,CLR,,0.00,WeatherDisplay:10.37,2013-01-25 11:38:00,
2013-01-25 01:43:00,63.9,63.0,30.03,SSE,158,1.8,2.3,97,0.00,CLR,,0.00,WeatherDisplay:10.37,2013-01-25 11:43:00,
2013-01-25 01:48:00,64.4,63.5,30.03,SSE,158,2.1,2.3,97,0.00,CLR,,0.00,WeatherDisplay:10.37,2013-01-25 11:48:00,
2013-01-25 01:53:00,64.9,64.0,30.03,SSE,158,2.3,2.3,97,0.00,CLR,,0.00,WeatherDisplay:10.37,2013-01-25 11:53:00,
2013-01-25 01:58:00,64.9,64.0,30.02,SSE,158,2.0,2.7,97,0.00,CLR,,0.00,WeatherDisplay:10.37,2013-01-25 11:58:00,
2013-01-25 02:03:00,65.1,64.2,30.02,SSE,158,2.2,2.7,97,0.00,CLR,,0.00,WeatherDisplay:10.37,2013-01-25 12:03:00,
2013-01-25 02:08:00,65.1,64.2,30.02,SSE,158,2.1,2.3,97,0.00,CLR,,0.00,WeatherDisplay:10.37,2013-01-25 12:08:00,
2013-01-25 02:13:00,65.1,64.2,30.02,SSE,158,1.7,2.3,97,0.00,CLR,,0.00,WeatherDisplay:10.37,2013-01-25 12:13:00,
2013-01-25 02:18:00,65.1,64.2,30.02,SSE,158,1.7,1.7,97,0.00,CLR,,0.00,WeatherDisplay:10.37,2013-01-25 12:18:00,
2013-01-25 02:23:00,64.8,63.9,30.01,SSE,158,1.3,1.7,97,0.00,CLR,,0.00,WeatherDisplay:10.37,2013-01-25 12:23:00,
2013-01-25 02:28:00,64.8,63.9,30.01,SSE,158,0.6,1.1,97,0.00,CLR,,0.00,WeatherDisplay:10.37,2013-01-25 12:28:00,
2013-01-25 02:34:00,64.6,63.7,30.01,SSE,158,0.0,0.0,97,0.00,CLR,,0.00,WeatherDisplay:10.37,2013-01-25 12:34:00,
2013-01-25 02:39:00,64.6,63.7,30.01,SSE,158,0.7,2.3,97,0.00,CLR,,0.00,WeatherDisplay:10.37,2013-01-25 12:39:00,
2013-01-25 02:44:00,64.6,63.7,30.01,SSE,158,1.2,1.7,97,0.00,CLR,,0.00,WeatherDisplay:10.37,2013-01-25 12:44:00,
2013-01-25 02:49:00,64.8,63.9,30.01,SSE,158,1.9,2.3,97,0.00,CLR,,0.00,WeatherDisplay:10.37,2013-01-25 12:49:00,
2013-01-25 02:54:00,64.8,63.9,30.01,SSE,158,1.7,1.7,97,0.00,CLR,,0.00,WeatherDisplay:10.37,2013-01-25 12:54:00,
2013-01-25 02:59:00,65.1,64.2,30.00,SSE,158,1.9,2.3,97,0.00,CLR,,0.00,WeatherDisplay:10.37,2013-01-25 12:59:00,
2013-01-25 03:04:00,65.1,64.2,30.00,SSE,158,1.8,2.3,97,0.00,CLR,,0.00,WeatherDisplay:10.37,2013-01-25 13:04:00,
2013-01-25 03:09:00,65.1,64.2,30.00,SSE,158,2.2,2.3,97,0.00,CLR,,0.00,WeatherDisplay:10.37,2013-01-25 13:09:00,
2013-01-25 03:14:00,65.1,64.2,30.00,SSE,158,1.5,2.3,97,0.00,CLR,,0.00,WeatherDisplay:10.37,2013-01-25 13:14:00,
2013-01-25 03:19:00,65.1,64.2,30.00,SSE,158,2.3,2.3,97,0.00,CLR,,0.00,WeatherDisplay:10.37,2013-01-25 13:19:00,
2013-01-25 03:24:00,65.3,64.4,30.00,SSE,158,0.0,0.0,97,0.00,CLR,,0.00,WeatherDisplay:10.37,2013-01-25 13:24:00,
2013-01-25 03:29:00,65.3,64.4,30.00,SSE,158,1.7,1.7,97,0.00,CLR,,0.00,WeatherDisplay:10.37,2013-01-25 13:29:00,
2013-01-25 03:34:00,65.3,64.4,30.00,SSE,158,1.7,1.7,97,0.00,CLR,,0.00,WeatherDisplay:10.37,2013-01-25 13:34:00,
2013-01-25 03:39:00,65.3,64.4,30.00,SSE,158,1.7,1.7,97,0.00,CLR,,0.00,WeatherDisplay:10.37,2013-01-25 13:39:00,
2013-01-25 03:45:00,65.3,64.4,30.00,SSE,158,1.7,1.7,97,0.00,CLR,,0.00,WeatherDisplay:10.37,2013-01-25 13:45:00,
2013-01-25 03:50:00,65.3,64.4,30.00,SSE,158,1.0,2.0,97,0.00,CLR,,0.00,WeatherDisplay:10.37,2013-01-25 13:50:00,
2013-01-25 03:55:00,65.3,64.4,30.00,SSE,158,1.0,2.0,97,0.00,CLR,,0.00,WeatherDisplay:10.37,2013-01-25 13:55:00,
2013-01-25 04:00:00,65.3,64.4,30.00,SSE,158,1.0,2.0,97,0.00,CLR,,0.00,WeatherDisplay:10.37,2013-01-25 14:00:00,
2013-01-25 04:05:00,65.3,64.4,30.00,SSE,158,1.0,2.0,97,0.00,CLR,,0.00,WeatherDisplay:10.37,2013-01-25 14:05:00,
2013-01-25 04:10:00,65.3,64.4,30.00,SSE,158,1.0,2.0,97,0.00,CLR,,0.00,WeatherDisplay:10.37,2013-01-25 14:10:00,
2013-01-25 04:15:00,65.3,64.4,30.00,SSE,158,1.7,1.7,97,0.00,CLR,,0.00,WeatherDisplay:10.37,2013-01-25 14:15:00,
2013-01-25 04:20:00,65.3,64.4,30.00,SSE,158,1.7,1.7,97,0.00,CLR,,0.00,WeatherDisplay:10.37,2013-01-25 14:20:00,
2013-01-25 04:25:00,65.3,64.4,30.00,SSE,158,1.7,1.7,97,0.00,CLR,,0.00,WeatherDisplay:10.37,2013-01-25 14:25:00,
2013-01-25 04:30:00,65.3,64.4,30.00,SSE,158,1.7,1.7,97,0.00,CLR,,0.00,WeatherDisplay:10.37,2013-01-25 14:30:00,
2013-01-25 04:35:00,65.3,64.4,30.00,SSE,158,1.7,1.7,97,0.00,CLR,,0.00,WeatherDisplay:10.37,2013-01-25 14:35:00,
2013-01-25 04:40:00,65.3,64.4,30.00,SSE,158,1.7,1.7,97,0.00,CLR,,0.00,WeatherDisplay:10.37,2013-01-25 14:40:00,
2013-01-25 04:45:00,65.3,64.4,30.00,SSE,158,1.7,1.7,97,0.00,CLR,,0.00,WeatherDisplay:10.37,2013-01-25 14:45:00,
2013-01-25 04:50:00,65.7,64.8,29.99,SSE,158,0.0,0.0,97,0.00,CLR,,0.00,WeatherDisplay:10.37,2013-01-25 14:50:00,
2013-01-25 04:55:00,65.8,64.9,29.99,SSE,158,0.0,0.0,97,0.00,CLR,,0.00,WeatherDisplay:10.37,2013-01-25 14:55:00,
2013-01-25 05:00:00,65.7,64.8,29.99,SSE,158,0.0,0.0,97,0.00,CLR,,0.00,WeatherDisplay:10.37,2013-01-25 15:00:00,
2013-01-25 05:05:00,65.3,64.4,29.99,SSE,158,0.0,0.0,97,0.00,CLR,,0.00,WeatherDisplay:10.37,2013-01-25 15:05:00,
2013-01-25 05:10:00,65.3,64.4,29.99,SSE,158,0.0,0.0,97,0.00,CLR,,0.00,WeatherDisplay:10.37,2013-01-25 15:10:00,
2013-01-25 05:15:00,65.5,64.6,29.99,SSE,158,0.0,0.0,97,0.00,CLR,,0.00,WeatherDisplay:10.37,2013-01-25 15:15:00,
2013-01-25 05:20:00,65.3,64.4,29.99,SSE,158,0.0,0.0,97,0.00,CLR,,0.00,WeatherDisplay:10.37,2013-01-25 15:20:00,
2013-01-25 05:26:00,65.3,64.4,29.99,SSE,158,0.0,0.0,97,0.00,CLR,,0.00,WeatherDisplay:10.37,2013-01-25 15:26:00,
2013-01-25 05:31:00,65.5,64.6,29.99,SSE,158,0.0,0.0,97,0.00,CLR,,0.00,WeatherDisplay:10.37,2013-01-25 15:31:00,
2013-01-25 05:36:00,65.3,64.4,30.00,SSE,158,0.0,0.0,97,0.00,CLR,,0.00,WeatherDisplay:10.37,2013-01-25 15:36:00,
2013-01-25 05:41:00,65.3,64.4,30.00,SSE,158,0.0,0.0,97,0.00,CLR,,0.00,WeatherDisplay:10.37,2013-01-25 15:41:00,
2013-01-25 05:46:00,65.3,64.4,30.00,SSE,158,0.0,0.0,97,0.00,CLR,,0.00,WeatherDisplay:10.37,2013-01-25 15:46:00,
2013-01-25 05:51:00,65.3,64.4,30.00,SSE,158,0.0,0.0,97,0.00,CLR,,0.00,WeatherDisplay:10.37,2013-01-25 15:51:00,
2013-01-25 05:56:00,65.3,64.4,30.00,SSE,158,0.0,0.0,97,0.00,CLR,,0.00,WeatherDisplay:10.37,2013-01-25 15:56:00,
2013-01-25 06:01:00,65.3,64.4,30.00,SSE,158,0.0,0.0,97,0.00,CLR,,0.00,WeatherDisplay:10.37,2013-01-25 16:01:00,
2013-01-25 06:06:00,65.3,64.4,30.00,SSE,158,0.0,0.0,97,0.00,CLR,,0.00,WeatherDisplay:10.37,2013-01-25 16:06:00,
2013-01-25 06:11:00,65.3,64.4,30.00,SSE,158,0.0,0.0,97,0.00,CLR,,0.00,WeatherDisplay:10.37,2013-01-25 16:11:00,
2013-01-25 06:16:00,65.3,64.4,30.00,SSE,158,0.0,0.0,97,0.00,CLR,,0.00,WeatherDisplay:10.37,2013-01-25 16:16:00,
2013-01-25 06:21:00,65.3,64.4,30.00,SSE,158,0.0,0.0,97,0.00,CLR,,0.00,WeatherDisplay:10.37,2013-01-25 16:21:00,
2013-01-25 06:26:00,65.3,64.4,30.00,SSE,158,0.0,0.0,97,0.00,CLR,,0.00,WeatherDisplay:10.37,2013-01-25 16:26:00,
2013-01-25 06:31:00,65.3,64.4,30.00,SSE,158,0.0,0.0,97,0.00,CLR,,0.00,WeatherDisplay:10.37,2013-01-25 16:31:00,
2013-01-25 06:36:00,65.3,64.4,30.00,SSE,158,0.0,0.0,97,0.00,CLR,,0.00,WeatherDisplay:10.37,2013-01-25 16:36:00,
2013-01-25 06:41:00,65.3,64.4,30.00,SSE,158,0.0,0.0,97,0.00,CLR,,0.00,WeatherDisplay:10.37,2013-01-25 16:41:00,
2013-01-25 06:46:00,65.3,64.4,30.00,SSE,158,0.0,0.0,97,0.00,CLR,,0.00,WeatherDisplay:10.37,2013-01-25 16:46:00,
2013-01-25 06:52:00,65.3,64.4,30.00,SSE,158,0.0,0.0,97,0.00,CLR,,0.00,WeatherDisplay:10.37,2013-01-25 16:52:00,
2013-01-25 06:57:00,65.3,64.4,30.00,SSE,158,0.0,0.0,97,0.00,CLR,,0.00,WeatherDisplay:10.37,2013-01-25 16:57:00,
2013-01-25 07:02:00,65.3,64.4,30.00,SSE,158,0.0,0.0,97,0.00,CLR,,0.00,WeatherDisplay:10.37,2013-01-25 17:02:00,
2013-01-25 07:07:00,65.3,64.4,30.00,SSE,158,0.0,0.0,97,0.00,CLR,,0.00,WeatherDisplay:10.37,2013-01-25 17:07:00,
2013-01-25 07:12:00,65.3,64.4,30.00,SSE,158,0.0,0.0,97,0.00,CLR,,0.00,WeatherDisplay:10.37,2013-01-25 17:12:00,
2013-01-25 07:17:00,65.3,64.4,30.00,SSE,158,0.0,0.0,97,0.00,CLR,,0.00,WeatherDisplay:10.37,2013-01-25 17:17:00,
2013-01-25 07:22:00,65.3,64.4,30.00,SSE,158,0.0,0.0,97,0.00,CLR,,0.00,WeatherDisplay:10.37,2013-01-25 17:22:00,
2013-01-25 07:27:00,65.3,64.4,30.00,SSE,158,0.0,0.0,97,0.00,CLR,,0.00,WeatherDisplay:10.37,2013-01-25 17:27:00,
2013-01-25 07:32:00,65.3,64.4,30.00,SSE,158,0.0,0.0,97,0.00,CLR,,0.00,WeatherDisplay:10.37,2013-01-25 17:32:00,
2013-01-25 07:37:00,65.3,64.4,30.00,SSE,158,0.0,0.0,97,0.00,CLR,,0.00,WeatherDisplay:10.37,2013-01-25 17:37:00,
2013-01-25 07:42:00,65.3,64.4,30.00,SSE,158,0.0,0.0,97,0.00,CLR,,0.00,WeatherDisplay:10.37,2013-01-25 17:42:00,
2013-01-25 07:47:00,65.3,64.4,30.00,SSE,158,0.0,0.0,97,0.00,CLR,,0.00,WeatherDisplay:10.37,2013-01-25 17:47:00,
2013-01-25 07:52:00,65.3,64.4,30.00,SSE,158,0.0,0.0,97,0.00,CLR,,0.00,WeatherDisplay:10.37,2013-01-25 17:52:00,
2013-01-25 07:57:00,65.3,64.4,30.00,SSE,158,0.0,0.0,97,0.00,CLR,,0.00,WeatherDisplay:10.37,2013-01-25 17:57:00,
2013-01-25 08:03:00,65.3,64.4,30.00,SSE,158,0.0,0.0,97,0.00,CLR,,0.00,WeatherDisplay:10.37,2013-01-25 18:03:00,
2013-01-25 08:08:00,65.3,64.4,30.00,SSE,158,0.0,0.0,97,0.00,CLR,,0.00,WeatherDisplay:10.37,2013-01-25 18:08:00,
2013-01-25 08:13:00,65.3,64.4,30.00,SSE,158,0.0,0.0,97,0.00,CLR,,0.00,WeatherDisplay:10.37,2013-01-25 18:13:00,
2013-01-25 08:18:00,65.3,64.4,30.00,SSE,158,0.0,0.0,97,0.00,CLR,,0.00,WeatherDisplay:10.37,2013-01-25 18:18:00,
2013-01-25 08:23:00,65.3,64.4,30.00,SSE,158,0.0,0.0,97,0.00,CLR,,0.00,WeatherDisplay:10.37,2013-01-25 18:23:00,
2013-01-25 08:28:00,65.3,64.4,30.00,SSE,158,0.0,0.0,97,0.00,CLR,,0.00,WeatherDisplay:10.37,2013-01-25 18:28:00,
2013-01-25 08:33:00,65.3,64.4,30.00,SSE,158,0.0,0.0,97,0.00,CLR,,0.00,WeatherDisplay:10.37,2013-01-25 18:33:00,
2013-01-25 08:38:00,65.3,64.4,30.00,SSE,158,0.0,0.0,97,0.00,CLR,,0.00,WeatherDisplay:10.37,2013-01-25 18:38:00,
2013-01-25 08:43:00,65.3,64.4,30.00,SSE,158,0.0,0.0,97,0.00,CLR,,0.00,WeatherDisplay:10.37,2013-01-25 18:43:00,
2013-01-25 08:48:00,65.3,64.4,30.00,SSE,158,0.0,0.0,97,0.00,CLR,,0.00,WeatherDisplay:10.37,2013-01-25 18:48:00,
2013-01-25 08:53:00,65.3,64.4,30.00,SSE,158,0.0,0.0,97,0.00,CLR,,0.00,WeatherDisplay:10.37,2013-01-25 18:53:00,
2013-01-25 08:58:00,65.3,64.4,30.00,SSE,158,0.0,0.0,97,0.00,CLR,,0.00,WeatherDisplay:10.37,2013-01-25 18:58:00,
2013-01-25 09:03:00,65.3,64.4,30.00,SSE,158,0.0,0.0,97,0.00,CLR,,0.00,WeatherDisplay:10.37,2013-01-25 19:03:00,
2013-01-25 09:08:00,65.3,64.4,30.00,SSE,158,0.0,0.0,97,0.00,CLR,,0.00,WeatherDisplay:10.37,2013-01-25 19:08:00,
2013-01-25 09:14:00,65.3,64.4,30.00,SSE,158,0.0,0.0,97,0.00,CLR,,0.00,WeatherDisplay:10.37,2013-01-25 19:14:00,
2013-01-25 09:19:00,65.3,64.4,30.00,SSE,158,0.0,0.0,97,0.00,CLR,,0.00,WeatherDisplay:10.37,2013-01-25 19:19:00,
2013-01-25 09:24:00,65.3,64.4,30.00,SSE,158,0.0,0.0,97,0.00,CLR,,0.00,WeatherDisplay:10.37,2013-01-25 19:24:00,
2013-01-25 09:29:00,65.3,64.4,30.00,SSE,158,0.0,0.0,97,0.00,CLR,,0.00,WeatherDisplay:10.37,2013-01-25 19:29:00,
2013-01-25 09:34:00,65.3,64.4,30.00,SSE,158,0.0,0.0,97,0.00,CLR,,0.00,WeatherDisplay:10.37,2013-01-25 19:34:00,
2013-01-25 09:39:00,65.3,64.4,30.00,SSE,158,0.0,0.0,97,0.00,CLR,,0.00,WeatherDisplay:10.37,2013-01-25 19:39:00,
2013-01-25 09:44:00,65.3,64.4,30.00,SSE,158,0.0,0.0,97,0.00,CLR,,0.00,WeatherDisplay:10.37,2013-01-25 19:44:00,
2013-01-25 09:49:00,65.3,64.4,30.00,SSE,158,0.0,0.0,97,0.00,CLR,,0.00,WeatherDisplay:10.37,2013-01-25 19:49:00,
2013-01-25 09:54:00,65.3,64.4,30.00,SSE,158,0.0,0.0,97,0.00,CLR,,0.00,WeatherDisplay:10.37,2013-01-25 19:54:00,
2013-01-25 09:59:00,65.3,64.4,30.00,SSE,158,0.0,0.0,97,0.00,CLR,,0.00,WeatherDisplay:10.37,2013-01-25 19:59:00,
2013-01-25 10:04:00,65.3,64.4,30.00,SSE,158,0.0,0.0,97,0.00,CLR,,0.00,WeatherDisplay:10.37,2013-01-25 20:04:00,
2013-01-25 10:09:00,65.3,64.4,30.00,SSE,158,0.0,0.0,97,0.00,CLR,,0.00,WeatherDisplay:10.37,2013-01-25 20:09:00,
2013-01-25 10:14:00,65.3,64.4,30.00,SSE,158,0.0,0.0,97,0.00,CLR,,0.00,WeatherDisplay:10.37,2013-01-25 20:14:00,
2013-01-25 10:19:00,65.3,64.4,30.00,SSE,158,0.0,0.0,97,0.00,CLR,,0.00,WeatherDisplay:10.37,2013-01-25 20:19:00,
2013-01-25 10:25:00,65.3,64.4,30.00,SSE,158,0.0,0.0,97,0.00,CLR,,0.00,WeatherDisplay:10.37,2013-01-25 20:25:00,
2013-01-25 10:30:00,65.3,64.4,30.00,SSE,158,0.0,0.0,97,0.00,CLR,,0.00,WeatherDisplay:10.37,2013-01-25 20:30:00,
2013-01-25 10:35:00,65.3,64.4,30.00,SSE,158,0.0,0.0,97,0.00,CLR,,0.00,WeatherDisplay:10.37,2013-01-25 20:35:00,
2013-01-25 10:40:00,65.3,64.4,30.00,SSE,158,0.0,0.0,97,0.00,CLR,,0.00,WeatherDisplay:10.37,2013-01-25 20:40:00,
2013-01-25 11:01:00,65.3,64.4,30.00,SSE,158,0.0,0.0,97,0.00,CLR,,0.00,WeatherDisplay:10.37,2013-01-25 21:01:00,
2013-01-25 11:06:00,65.3,64.4,30.00,SSE,158,0.0,0.0,97,0.00,CLR,,0.00,WeatherDisplay:10.37,2013-01-25 21:06:00,
2013-01-25 11:11:00,65.3,64.4,30.00,SSE,158,0.0,0.0,97,0.00,CLR,,0.00,WeatherDisplay:10.37,2013-01-25 21:11:00,
2013-01-25 11:16:00,65.3,64.4,30.00,SSE,158,0.0,0.0,97,0.00,CLR,,0.00,WeatherDisplay:10.37,2013-01-25 21:16:00,
2013-01-25 11:22:00,65.3,64.4,30.00,SSE,158,0.0,0.0,97,0.00,CLR,,0.00,WeatherDisplay:10.37,2013-01-25 21:22:00,
2013-01-25 11:27:00,65.3,64.4,30.00,SSE,158,0.0,0.0,97,0.00,CLR,,0.00,WeatherDisplay:10.37,2013-01-25 21:27:00,
2013-01-25 11:32:00,65.3,64.4,30.00,SSE,158,0.0,0.0,97,0.00,CLR,,0.00,WeatherDisplay:10.37,2013-01-25 21:32:00,
2013-01-25 11:37:00,65.3,64.4,30.00,SSE,158,0.0,0.0,97,0.00,CLR,,0.00,WeatherDisplay:10.37,2013-01-25 21:37:00,
2013-01-25 11:42:00,65.3,64.4,30.00,SSE,158,0.0,0.0,97,0.00,CLR,,0.00,WeatherDisplay:10.37,2013-01-25 21:42:00,
2013-01-25 11:47:00,65.3,64.4,30.00,SSE,158,0.0,0.0,97,0.00,CLR,,0.00,WeatherDisplay:10.37,2013-01-25 21:47:00,
2013-01-25 11:52:00,65.3,64.4,30.00,SSE,158,0.0,0.0,97,0.00,CLR,,0.00,WeatherDisplay:10.37,2013-01-25 21:52:00,
2013-01-25 11:57:00,65.3,64.4,30.00,SSE,158,0.0,0.0,97,0.00,CLR,,0.00,WeatherDisplay:10.37,2013-01-25 21:57:00,
2013-01-25 12:02:00,65.3,64.4,30.00,SSE,158,0.0,0.0,97,0.00,CLR,,0.00,WeatherDisplay:10.37,2013-01-25 22:02:00,
2013-01-25 12:07:00,65.3,64.4,30.00,SSE,158,0.0,0.0,97,0.00,CLR,,0.00,WeatherDisplay:10.37,2013-01-25 22:07:00,
2013-01-25 12:12:00,65.3,64.4,30.00,SSE,158,0.0,0.0,97,0.00,CLR,,0.00,WeatherDisplay:10.37,2013-01-25 22:12:00,
2013-01-25 12:17:00,65.3,64.4,30.00,SSE,158,0.0,0.0,97,0.00,CLR,,0.00,WeatherDisplay:10.37,2013-01-25 22:17:00,
2013-01-25 12:22:00,65.3,64.4,30.00,SSE,158,0.0,0.0,97,0.00,CLR,,0.00,WeatherDisplay:10.37,2013-01-25 22:22:00,
2013-01-25 12:27:00,65.3,64.4,30.00,SSE,158,0.0,0.0,97,0.00,CLR,,0.00,WeatherDisplay:10.37,2013-01-25 22:27:00,
2013-01-25 12:33:00,65.3,64.4,30.00,SSE,158,0.0,0.0,97,0.00,CLR,,0.00,WeatherDisplay:10.37,2013-01-25 22:33:00,
2013-01-25 12:38:00,65.3,64.4,30.00,SSE,158,0.0,0.0,97,0.00,CLR,,0.00,WeatherDisplay:10.37,2013-01-25 22:38:00,
2013-01-25 12:43:00,65.3,64.4,30.00,SSE,158,0.0,0.0,97,0.00,CLR,,0.00,WeatherDisplay:10.37,2013-01-25 22:43:00,
2013-01-25 12:48:00,65.3,64.4,30.00,SSE,158,0.0,0.0,97,0.00,CLR,,0.00,WeatherDisplay:10.37,2013-01-25 22:48:00,
2013-01-25 12:53:00,65.3,64.4,30.00,SSE,158,0.0,0.0,97,0.00,CLR,,0.00,WeatherDisplay:10.37,2013-01-25 22:53:00,
2013-01-25 12:58:00,65.3,64.4,30.00,SSE,158,0.0,0.0,97,0.00,CLR,,0.00,WeatherDisplay:10.37,2013-01-25 22:58:00,
2013-01-25 13:03:00,65.3,64.4,30.00,SSE,158,0.0,0.0,97,0.00,CLR,,0.00,WeatherDisplay:10.37,2013-01-25 23:03:00,
2013-01-25 13:08:00,65.3,64.4,30.00,SSE,158,0.0,0.0,97,0.00,CLR,,0.00,WeatherDisplay:10.37,2013-01-25 23:08:00,
2013-01-25 13:13:00,65.3,64.4,30.00,SSE,158,0.0,0.0,97,0.00,CLR,,0.00,WeatherDisplay:10.37,2013-01-25 23:13:00,
2013-01-25 13:18:00,65.3,64.4,30.00,SSE,158,0.0,0.0,97,0.00,CLR,,0.00,WeatherDisplay:10.37,2013-01-25 23:18:00,
2013-01-25 13:23:00,65.3,64.4,30.00,SSE,158,0.0,0.0,97,0.00,CLR,,0.00,WeatherDisplay:10.37,2013-01-25 23:23:00,
2013-01-25 13:28:00,65.3,64.4,30.00,SSE,158,0.0,0.0,97,0.00,CLR,,0.00,WeatherDisplay:10.37,2013-01-25 23:28:00,
2013-01-25 13:33:00,65.3,64.4,30.00,SSE,158,0.0,0.0,97,0.00,CLR,,0.00,WeatherDisplay:10.37,2013-01-25 23:33:00,
2013-01-25 13:38:00,65.3,64.4,30.00,SSE,158,0.0,0.0,97,0.00,CLR,,0.00,WeatherDisplay:10.37,2013-01-25 23:38:00,
2013-01-25 13:44:00,65.3,64.4,30.00,SSE,158,0.0,0.0,97,0.00,CLR,,0.00,WeatherDisplay:10.37,2013-01-25 23:44:00,
2013-01-25 13:49:00,65.3,64.4,30.00,SSE,158,0.0,0.0,97,0.00,CLR,,0.00,WeatherDisplay:10.37,2013-01-25 23:49:00,
2013-01-25 13:54:00,65.3,64.4,30.00,SSE,158,0.0,0.0,97,0.00,CLR,,0.00,WeatherDisplay:10.37,2013-01-25 23:54:00,
2013-01-25 13:59:00,65.3,64.4,30.00,SSE,158,0.0,0.0,97,0.00,CLR,,0.00,WeatherDisplay:10.37,2013-01-25 23:59:00,
2013-01-25 14:04:00,65.3,64.4,30.00,SSE,158,0.0,0.0,97,0.00,CLR,,0.00,WeatherDisplay:10.37,2013-01-26 00:04:00,
2013-01-25 14:09:00,65.3,64.4,30.00,SSE,158,0.0,0.0,97,0.00,CLR,,0.00,WeatherDisplay:10.37,2013-01-26 00:09:00,
2013-01-25 14:14:00,65.3,64.4,30.00,SSE,158,0.0,0.0,97,0.00,CLR,,0.00,WeatherDisplay:10.37,2013-01-26 00:14:00,
2013-01-25 14:19:00,65.3,64.4,30.00,SSE,158,0.0,0.0,97,0.00,CLR,,0.00,WeatherDisplay:10.37,2013-01-26 00:19:00,
2013-01-25 14:24:00,65.3,64.4,30.00,SSE,158,0.0,0.0,97,0.00,CLR,,0.00,WeatherDisplay:10.37,2013-01-26 00:24:00,
2013-01-25 14:29:00,65.3,64.4,30.00,SSE,158,0.0,0.0,97,0.00,CLR,,0.00,WeatherDisplay:10.37,2013-01-26 00:29:00,
2013-01-25 14:34:00,65.3,64.4,30.00,SSE,158,0.0,0.0,97,0.00,CLR,,0.00,WeatherDisplay:10.37,2013-01-26 00:34:00,
2013-01-25 14:39:00,65.3,64.4,30.00,SSE,158,0.0,0.0,97,0.00,CLR,,0.00,WeatherDisplay:10.37,2013-01-26 00:39:00,
2013-01-25 14:44:00,65.3,64.4,30.00,SSE,158,0.0,0.0,97,0.00,CLR,,0.00,WeatherDisplay:10.37,2013-01-26 00:44:00,
2013-01-25 14:49:00,65.3,64.4,30.00,SSE,158,0.0,0.0,97,0.00,CLR,,0.00,WeatherDisplay:10.37,2013-01-26 00:49:00,
2013-01-25 14:55:00,65.3,64.4,30.00,SSE,158,0.0,0.0,97,0.00,CLR,,0.00,WeatherDisplay:10.37,2013-01-26 00:55:00,
2013-01-25 15:00:00,65.3,64.4,30.00,SSE,158,0.0,0.0,97,0.00,CLR,,0.00,WeatherDisplay:10.37,2013-01-26 01:00:00,
2013-01-25 15:05:00,65.3,64.4,30.00,SSE,158,0.0,0.0,97,0.00,CLR,,0.00,WeatherDisplay:10.37,2013-01-26 01:05:00,
2013-01-25 15:10:00,65.3,64.4,30.00,SSE,158,0.0,0.0,97,0.00,CLR,,0.00,WeatherDisplay:10.37,2013-01-26 01:10:00,
2013-01-25 15:15:00,65.3,64.4,30.00,SSE,158,0.0,0.0,97,0.00,CLR,,0.00,WeatherDisplay:10.37,2013-01-26 01:15:00,
2013-01-25 15:20:00,65.3,64.4,30.00,SSE,158,0.0,0.0,97,0.00,CLR,,0.00,WeatherDisplay:10.37,2013-01-26 01:20:00,
2013-01-25 15:43:00,65.3,64.4,30.00,SSE,158,0.0,0.0,97,0.00,CLR,,0.00,WeatherDisplay:10.37,2013-01-26 01:43:00,
2013-01-25 15:48:00,65.3,64.4,30.00,SSE,158,0.0,0.0,97,0.00,CLR,,0.00,WeatherDisplay:10.37,2013-01-26 01:48:00,
2013-01-25 15:54:00,65.3,64.4,30.00,SSE,158,0.0,0.0,97,0.00,CLR,,0.00,WeatherDisplay:10.37,2013-01-26 01:54:00,
2013-01-25 15:59:00,65.3,64.4,30.00,SSE,158,0.0,0.0,97,0.00,CLR,,0.00,WeatherDisplay:10.37,2013-01-26 01:59:00,
2013-01-25 16:04:00,65.3,64.4,30.00,SSE,158,0.0,0.0,97,0.00,CLR,,0.00,WeatherDisplay:10.37,2013-01-26 02:04:00,
2013-01-25 16:09:00,65.3,64.4,30.00,SSE,158,0.0,0.0,97,0.00,CLR,,0.00,WeatherDisplay:10.37,2013-01-26 02:09:00,
2013-01-25 16:14:00,65.3,64.4,30.00,SSE,158,0.0,0.0,97,0.00,CLR,,0.00,WeatherDisplay:10.37,2013-01-26 02:14:00,
2013-01-25 16:19:00,65.3,64.4,30.00,SSE,158,0.0,0.0,97,0.00,CLR,,0.00,WeatherDisplay:10.37,2013-01-26 02:19:00,
2013-01-25 16:24:00,65.3,64.4,30.00,SSE,158,0.0,0.0,97,0.00,CLR,,0.00,WeatherDisplay:10.37,2013-01-26 02:24:00,
2013-01-25 16:29:00,65.3,64.4,30.00,SSE,158,0.0,0.0,97,0.00,CLR,,0.00,WeatherDisplay:10.37,2013-01-26 02:29:00,
2013-01-25 16:34:00,65.3,64.4,30.00,SSE,158,0.0,0.0,97,0.00,CLR,,0.00,WeatherDisplay:10.37,2013-01-26 02:34:00,
2013-01-25 16:39:00,65.3,64.4,30.00,SSE,158,0.0,0.0,97,0.00,CLR,,0.00,WeatherDisplay:10.37,2013-01-26 02:39:00,
2013-01-25 16:44:00,65.3,64.4,30.00,SSE,158,0.0,0.0,97,0.00,CLR,,0.00,WeatherDisplay:10.37,2013-01-26 02:44:00,
2013-01-25 16:49:00,65.3,64.4,30.00,SSE,158,0.0,0.0,97,0.00,CLR,,0.00,WeatherDisplay:10.37,2013-01-26 02:49:00,
2013-01-25 16:54:00,65.3,64.4,30.00,SSE,158,0.0,0.0,97,0.00,CLR,,0.00,WeatherDisplay:10.37,2013-01-26 02:54:00,
2013-01-25 16:59:00,65.3,64.4,30.00,SSE,158,0.0,0.0,97,0.00,CLR,,0.00,WeatherDisplay:10.37,2013-01-26 02:59:00,
2013-01-25 17:04:00,65.3,64.4,30.00,SSE,158,0.0,0.0,97,0.00,CLR,,0.00,WeatherDisplay:10.37,2013-01-26 03:04:00,
2013-01-25 17:09:00,65.3,64.4,30.00,SSE,158,0.0,0.0,97,0.00,CLR,,0.00,WeatherDisplay:10.37,2013-01-26 03:09:00,
2013-01-25 17:15:00,65.3,64.4,30.00,SSE,158,0.0,0.0,97,0.00,CLR,,0.00,WeatherDisplay:10.37,2013-01-26 03:15:00,
2013-01-25 17:20:00,65.3,64.4,30.00,SSE,158,0.0,0.0,97,0.00,CLR,,0.00,WeatherDisplay:10.37,2013-01-26 03:20:00,
2013-01-25 17:25:00,65.3,64.4,30.00,SSE,158,0.0,0.0,97,0.00,CLR,,0.00,WeatherDisplay:10.37,2013-01-26 03:25:00,
2013-01-25 17:30:00,65.3,64.4,30.00,SSE,158,0.0,0.0,97,0.00,CLR,,0.00,WeatherDisplay:10.37,2013-01-26 03:30:00,
2013-01-25 17:35:00,65.3,64.4,30.00,SSE,158,0.0,0.0,97,0.00,CLR,,0.00,WeatherDisplay:10.37,2013-01-26 03:35:00,
2013-01-25 17:40:00,65.3,64.4,30.00,SSE,158,0.0,0.0,97,0.00,CLR,,0.00,WeatherDisplay:10.37,2013-01-26 03:40:00,
2013-01-25 17:45:00,65.3,64.4,30.00,SSE,158,0.0,0.0,97,0.00,CLR,,0.00,WeatherDisplay:10.37,2013-01-26 03:45:00,
2013-01-25 17:50:00,65.3,64.4,30.00,SSE,158,0.0,0.0,97,0.00,CLR,,0.00,WeatherDisplay:10.37,2013-01-26 03:50:00,
2013-01-25 17:55:00,65.3,64.4,30.00,SSE,158,0.0,0.0,97,0.00,CLR,,0.00,WeatherDisplay:10.37,2013-01-26 03:55:00,
2013-01-25 18:00:00,65.3,64.4,30.00,SSE,158,0.0,0.0,97,0.00,CLR,,0.00,WeatherDisplay:10.37,2013-01-26 04:00:00,
2013-01-25 18:05:00,65.3,64.4,30.00,SSE,158,0.0,0.0,97,0.00,CLR,,0.00,WeatherDisplay:10.37,2013-01-26 04:05:00,
2013-01-25 18:10:00,65.3,64.4,30.00,SSE,158,0.0,0.0,97,0.00,CLR,,0.00,WeatherDisplay:10.37,2013-01-26 04:10:00,
2013-01-25 18:15:00,65.3,64.4,30.00,SSE,158,0.0,0.0,97,0.00,CLR,,0.00,WeatherDisplay:10.37,2013-01-26 04:15:00,
2013-01-25 18:20:00,65.3,64.4,30.00,SSE,158,0.0,0.0,97,0.00,CLR,,0.00,WeatherDisplay:10.37,2013-01-26 04:20:00,
2013-01-25 18:25:00,65.3,64.4,30.00,SSE,158,0.0,0.0,97,0.00,CLR,,0.00,WeatherDisplay:10.37,2013-01-26 04:25:00,
2013-01-25 18:30:00,65.3,64.4,30.00,SSE,158,0.0,0.0,97,0.00,CLR,,0.00,WeatherDisplay:10.37,2013-01-26 04:30:00,
2013-01-25 18:35:00,65.3,64.4,30.00,SSE,158,0.0,0.0,97,0.00,CLR,,0.00,WeatherDisplay:10.37,2013-01-26 04:35:00,
2013-01-25 18:40:00,65.3,64.4,30.00,SSE,158,0.0,0.0,97,0.00,CLR,,0.00,WeatherDisplay:10.37,2013-01-26 04:40:00,
2013-01-25 18:45:00,65.3,64.4,30.00,SSE,158,0.0,0.0,97,0.00,CLR,,0.00,WeatherDisplay:10.37,2013-01-26 04:45:00,
2013-01-25 18:50:00,65.3,64.4,30.00,SSE,158,0.0,0.0,97,0.00,CLR,,0.00,WeatherDisplay:10.37,2013-01-26 04:50:00,
2013-01-25 18:55:00,65.3,64.4,30.00,SSE,158,0.0,0.0,97,0.00,CLR,,0.00,WeatherDisplay:10.37,2013-01-26 04:55:00,
2013-01-25 19:00:00,65.3,64.4,30.00,SSE,158,0.0,0.0,97,0.00,CLR,,0.00,WeatherDisplay:10.37,2013-01-26 05:00:00,
2013-01-25 19:01:00,65.3,64.4,30.00,SSE,158,0.0,0.0,97,0.00,CLR,,0.00,WeatherDisplay:10.37,2013-01-26 05:01:00,
2013-01-25 19:02:00,65.3,64.4,30.00,SSE,158,0.0,0.0,97,0.00,CLR,,0.00,WeatherDisplay:10.37,2013-01-26 05:02:00,
2013-01-25 19:07:00,65.3,64.4,30.00,SSE,158,0.0,0.0,97,0.00,CLR,,0.00,WeatherDisplay:10.37,2013-01-26 05:07:00,
2013-01-25 19:12:00,65.3,64.4,30.00,SSE,158,0.0,0.0,97,0.00,CLR,,0.00,WeatherDisplay:10.37,2013-01-26 05:12:00,
2013-01-25 19:17:00,65.3,64.4,30.00,SSE,158,0.0,0.0,97,0.00,CLR,,0.00,WeatherDisplay:10.37,2013-01-26 05:17:00,
2013-01-25 19:22:00,65.3,64.4,30.00,SSE,158,0.0,0.0,97,0.00,CLR,,0.00,WeatherDisplay:10.37,2013-01-26 05:22:00,
2013-01-25 19:27:00,65.3,64.4,30.00,SSE,158,0.0,0.0,97,0.00,CLR,,0.00,WeatherDisplay:10.37,2013-01-26 05:27:00,
2013-01-25 19:32:00,65.3,64.4,30.00,SSE,158,0.0,0.0,97,0.00,CLR,,0.00,WeatherDisplay:10.37,2013-01-26 05:32:00,
2013-01-25 19:37:00,65.3,64.4,30.00,SSE,158,0.0,0.0,97,0.00,CLR,,0.00,WeatherDisplay:10.37,2013-01-26 05:37:00,
2013-01-25 19:42:00,65.3,64.4,30.00,SSE,158,0.0,0.0,97,0.00,CLR,,0.00,WeatherDisplay:10.37,2013-01-26 05:42:00,
2013-01-25 19:47:00,65.3,64.4,30.00,SSE,158,0.0,0.0,97,0.00,CLR,,0.00,WeatherDisplay:10.37,2013-01-26 05:47:00,
2013-01-25 19:52:00,65.3,64.4,30.00,SSE,158,0.0,0.0,97,0.00,CLR,,0.00,WeatherDisplay:10.37,2013-01-26 05:52:00,
2013-01-25 19:57:00,65.3,64.4,30.00,SSE,158,0.0,0.0,97,0.00,CLR,,0.00,WeatherDisplay:10.37,2013-01-26 05:57:00,
2013-01-25 20:02:00,65.3,64.4,30.00,SSE,158,0.0,0.0,97,0.00,CLR,,0.00,WeatherDisplay:10.37,2013-01-26 06:02:00,
2013-01-25 20:07:00,65.3,64.4,30.00,SSE,158,0.0,0.0,97,0.00,CLR,,0.00,WeatherDisplay:10.37,2013-01-26 06:07:00,
2013-01-25 20:13:00,65.3,64.4,30.00,SSE,158,0.0,0.0,97,0.00,CLR,,0.00,WeatherDisplay:10.37,2013-01-26 06:13:00,
2013-01-25 20:18:00,65.3,64.4,30.00,SSE,158,0.0,0.0,97,0.00,CLR,,0.00,WeatherDisplay:10.37,2013-01-26 06:18:00,
2013-01-25 20:23:00,65.3,64.4,30.00,SSE,158,0.0,0.0,97,0.00,CLR,,0.00,WeatherDisplay:10.37,2013-01-26 06:23:00,
2013-01-25 20:28:00,65.3,64.4,30.00,SSE,158,0.0,0.0,97,0.00,CLR,,0.00,WeatherDisplay:10.37,2013-01-26 06:28:00,
2013-01-25 20:33:00,65.3,64.4,30.00,SSE,158,0.0,0.0,97,0.00,CLR,,0.00,WeatherDisplay:10.37,2013-01-26 06:33:00,
2013-01-25 20:38:00,65.3,64.4,30.00,SSE,158,0.0,0.0,97,0.00,CLR,,0.00,WeatherDisplay:10.37,2013-01-26 06:38:00,
2013-01-25 20:43:00,65.3,64.4,30.00,SSE,158,0.0,0.0,97,0.00,CLR,,0.00,WeatherDisplay:10.37,2013-01-26 06:43:00,
2013-01-25 20:48:00,65.3,64.4,30.00,SSE,158,0.0,0.0,97,0.00,CLR,,0.00,WeatherDisplay:10.37,2013-01-26 06:48:00,
2013-01-25 20:53:00,65.3,64.4,30.00,SSE,158,0.0,0.0,97,0.00,CLR,,0.00,WeatherDisplay:10.37,2013-01-26 06:53:00,
2013-01-25 20:58:00,65.3,64.4,30.00,SSE,158,0.0,0.0,97,0.00,CLR,,0.00,WeatherDisplay:10.37,2013-01-26 06:58:00,
2013-01-25 21:03:00,65.3,64.4,30.00,SSE,158,0.0,0.0,97,0.00,CLR,,0.00,WeatherDisplay:10.37,2013-01-26 07:03:00,
2013-01-25 21:08:00,65.3,64.4,30.00,SSE,158,0.0,0.0,97,0.00,CLR,,0.00,WeatherDisplay:10.37,2013-01-26 07:08:00,
2013-01-25 21:13:00,65.3,64.4,30.00,SSE,158,0.0,0.0,97,0.00,CLR,,0.00,WeatherDisplay:10.37,2013-01-26 07:13:00,
2013-01-25 21:18:00,65.3,64.4,30.00,SSE,158,0.0,0.0,97,0.00,CLR,,0.00,WeatherDisplay:10.37,2013-01-26 07:18:00,
2013-01-25 21:24:00,65.3,64.4,30.00,SSE,158,0.0,0.0,97,0.00,CLR,,0.00,WeatherDisplay:10.37,2013-01-26 07:24:00,
2013-01-25 21:29:00,65.3,64.4,30.00,SSE,158,0.0,0.0,97,0.00,CLR,,0.00,WeatherDisplay:10.37,2013-01-26 07:29:00,
2013-01-25 21:34:00,65.3,64.4,30.00,SSE,158,0.0,0.0,97,0.00,CLR,,0.00,WeatherDisplay:10.37,2013-01-26 07:34:00,
2013-01-25 21:39:00,65.3,64.4,30.00,SSE,158,0.0,0.0,97,0.00,CLR,,0.00,WeatherDisplay:10.37,2013-01-26 07:39:00,
2013-01-25 21:44:00,65.3,64.4,30.00,SSE,158,0.0,0.0,97,0.00,CLR,,0.00,WeatherDisplay:10.37,2013-01-26 07:44:00,
2013-01-25 21:49:00,65.3,64.4,30.00,SSE,158,0.0,0.0,97,0.00,CLR,,0.00,WeatherDisplay:10.37,2013-01-26 07:49:00,
2013-01-25 21:54:00,65.3,64.4,30.00,SSE,158,0.0,0.0,97,0.00,CLR,,0.00,WeatherDisplay:10.37,2013-01-26 07:54:00,
2013-01-25 21:59:00,65.3,64.4,30.00,SSE,158,0.0,0.0,97,0.00,CLR,,0.00,WeatherDisplay:10.37,2013-01-26 07:59:00,
2013-01-25 22:04:00,65.3,64.4,30.00,SSE,158,0.0,0.0,97,0.00,CLR,,0.00,WeatherDisplay:10.37,2013-01-26 08:04:00,
2013-01-25 22:09:00,65.3,64.4,30.00,SSE,158,0.0,0.0,97,0.00,CLR,,0.00,WeatherDisplay:10.37,2013-01-26 08:09:00,
2013-01-25 22:14:00,65.3,64.4,30.00,SSE,158,0.0,0.0,97,0.00,CLR,,0.00,WeatherDisplay:10.37,2013-01-26 08:14:00,
2013-01-25 22:19:00,65.3,64.4,30.00,SSE,158,0.0,0.0,97,0.00,CLR,,0.00,WeatherDisplay:10.37,2013-01-26 08:19:00,
2013-01-25 22:24:00,65.3,64.4,30.00,SSE,158,0.0,0.0,97,0.00,CLR,,0.00,WeatherDisplay:10.37,2013-01-26 08:24:00,
2013-01-25 22:29:00,65.3,64.4,30.00,SSE,158,0.0,0.0,97,0.00,CLR,,0.00,WeatherDisplay:10.37,2013-01-26 08:29:00,
2013-01-25 22:35:00,65.3,64.4,30.00,SSE,158,0.0,0.0,97,0.00,CLR,,0.00,WeatherDisplay:10.37,2013-01-26 08:35:00,
2013-01-25 22:40:00,65.3,64.4,30.00,SSE,158,0.0,0.0,97,0.00,CLR,,0.00,WeatherDisplay:10.37,2013-01-26 08:40:00,
2013-01-25 22:45:00,65.3,64.4,30.00,SSE,158,0.0,0.0,97,0.00,CLR,,0.00,WeatherDisplay:10.37,2013-01-26 08:45:00,
2013-01-25 22:50:00,65.3,64.4,30.00,SSE,158,0.0,0.0,97,0.00,CLR,,0.00,WeatherDisplay:10.37,2013-01-26 08:50:00,
2013-01-25 22:55:00,65.3,64.4,30.00,SSE,158,0.0,0.0,97,0.00,CLR,,0.00,WeatherDisplay:10.37,2013-01-26 08:55:00,
2013-01-25 23:00:00,65.3,64.4,30.00,SSE,158,0.0,0.0,97,0.00,CLR,,0.00,WeatherDisplay:10.37,2013-01-26 09:00:00,
2013-01-25 23:05:00,65.3,64.4,30.00,SSE,158,0.0,0.0,97,0.00,CLR,,0.00,WeatherDisplay:10.37,2013-01-26 09:05:00,
2013-01-25 23:10:00,65.3,64.4,30.00,SSE,158,0.0,0.0,97,0.00,CLR,,0.00,WeatherDisplay:10.37,2013-01-26 09:10:00,
2013-01-25 23:15:00,65.3,64.4,30.00,SSE,158,0.0,0.0,97,0.00,CLR,,0.00,WeatherDisplay:10.37,2013-01-26 09:15:00,
2013-01-25 23:20:00,65.3,64.4,30.00,SSE,158,0.0,0.0,97,0.00,CLR,,0.00,WeatherDisplay:10.37,2013-01-26 09:20:00,
2013-01-25 23:25:00,65.3,64.4,30.00,SSE,158,0.0,0.0,97,0.00,CLR,,0.00,WeatherDisplay:10.37,2013-01-26 09:25:00,
2013-01-25 23:30:00,65.3,64.4,30.00,SSE,158,0.0,0.0,97,0.00,CLR,,0.00,WeatherDisplay:10.37,2013-01-26 09:30:00,
2013-01-25 23:35:00,65.3,64.4,30.00,SSE,158,0.0,0.0,97,0.00,CLR,,0.00,WeatherDisplay:10.37,2013-01-26 09:35:00,
2013-01-25 23:40:00,65.3,64.4,30.00,SSE,158,0.0,0.0,97,0.00,CLR,,0.00,WeatherDisplay:10.37,2013-01-26 09:40:00,
2013-01-25 23:45:00,65.3,64.4,30.00,SSE,158,0.0,0.0,97,0.00,CLR,,0.00,WeatherDisplay:10.37,2013-01-26 09:45:00,
2013-01-25 23:50:00,65.3,64.4,30.00,SSE,158,0.0,0.0,97,0.00,CLR,,0.00,WeatherDisplay:10.37,2013-01-26 09:50:00,
2013-01-25 23:55:00,65.3,64.4,30.00,SSE,158,0.0,0.0,97,0.00,CLR,,0.00,WeatherDisplay:10.37,2013-01-26 09:55:00,